Portada
METAR-TAF:

METAR-TAF

Aeroports :

Gambell, Alaska, Estats Units d'Amèrica

latitud: 63-46N, longitud: 171-44W, altitud: 8 m

Observació

L'informe es va fer fa 4 minuts, a les 12:56 UTC
Vent 28 kt del Est/Sud-Est amb ràfegues de 35 kt
Temperatura -9°C
Humitat 79%
Pressió 1015 hPa
Visibilitat: 4.0 km
Cel clar
neu

METAR: PAGM 301256Z AUTO 12028G35KT 2 1/2SM -SN CLR M09/M12 A2996 RMK AO2 PK WND 11035/1250 SLP151 P0000 T10941122 FZRANO

Hora: 05:00 (13:00 UTC)


TAF: manca

Observacions i pronòstics meteorològics de més de 4000 aeroports (METAR i TAF).

Les estacions disponibles són els punts grocs i vermells al mapa.

Posi el ratolí al punt desitjat per veure el nom de l'estació.

Feu clic per veure les observacions i els pronòstics meteorològics.

Per canviar el mapa: feu clic els botons verds amb una creu de color negre per apropar; al botó verd amb un guió per allunyar la imatge; o en les fletxes verdes per a mapes adjacents.


METAR-TAF: